sensor_id;sensor_type;location;lat;lon;timestamp;P1;durP1;ratioP1;P2;durP2;ratioP2
72413;SDS011;60995;52.154;4.498;2023-04-03T00:01:56;3.80;;;1.60;;
72413;SDS011;60995;52.154;4.498;2023-04-03T00:04:13;6.35;;;1.80;;
72413;SDS011;60995;52.154;4.498;2023-04-03T00:06:29;6.55;;;2.00;;
72413;SDS011;60995;52.154;4.498;2023-04-03T00:08:45;3.95;;;1.60;;
72413;SDS011;60995;52.154;4.498;2023-04-03T00:11:02;5.30;;;1.40;;
72413;SDS011;60995;52.154;4.498;2023-04-03T00:13:20;6.00;;;1.90;;
72413;SDS011;60995;52.154;4.498;2023-04-03T00:15:36;6.00;;;1.80;;
72413;SDS011;60995;52.154;4.498;2023-04-03T00:17:54;7.85;;;1.67;;
72413;SDS011;60995;52.154;4.498;2023-04-03T00:20:10;5.45;;;1.60;;
72413;SDS011;60995;52.154;4.498;2023-04-03T00:22:27;5.95;;;2.08;;
72413;SDS011;60995;52.154;4.498;2023-04-03T00:24:44;5.32;;;1.92;;
72413;SDS011;60995;52.154;4.498;2023-04-03T00:27:00;6.50;;;1.63;;
72413;SDS011;60995;52.154;4.498;2023-04-03T00:29:16;4.88;;;1.40;;
72413;SDS011;60995;52.154;4.498;2023-04-03T00:31:33;4.13;;;1.65;;
72413;SDS011;60995;52.154;4.498;2023-04-03T00:33:49;6.00;;;1.70;;
72413;SDS011;60995;52.154;4.498;2023-04-03T00:36:06;5.57;;;1.73;;
72413;SDS011;60995;52.154;4.498;2023-04-03T00:38:26;5.50;;;1.60;;
72413;SDS011;60995;52.154;4.498;2023-04-03T00:40:44;7.45;;;1.80;;
72413;SDS011;60995;52.154;4.498;2023-04-03T00:43:05;7.18;;;2.10;;
72413;SDS011;60995;52.154;4.498;2023-04-03T00:45:34;3.75;;;1.80;;
72413;SDS011;60995;52.154;4.498;2023-04-03T00:47:54;4.55;;;1.60;;
72413;SDS011;60995;52.154;4.498;2023-04-03T00:50:11;4.82;;;1.58;;
72413;SDS011;60995;52.154;4.498;2023-04-03T00:52:28;4.53;;;1.73;;
72413;SDS011;60995;52.154;4.498;2023-04-03T00:54:47;4.47;;;1.77;;
72413;SDS011;60995;52.154;4.498;2023-04-03T00:57:07;5.97;;;1.80;;
72413;SDS011;60995;52.154;4.498;2023-04-03T00:59:30;5.43;;;1.90;;
72413;SDS011;60995;52.154;4.498;2023-04-03T01:15:18;7.53;;;1.80;;
72413;SDS011;60995;52.154;4.498;2023-04-03T01:23:24;4.43;;;1.90;;
72413;SDS011;60995;52.154;4.498;2023-04-03T01:26:03;4.85;;;1.73;;
72413;SDS011;60995;52.154;4.498;2023-04-03T01:28:30;6.93;;;1.85;;
72413;SDS011;60995;52.154;4.498;2023-04-03T01:31:14;6.72;;;1.92;;
72413;SDS011;60995;52.154;4.498;2023-04-03T01:33:52;4.63;;;1.80;;
72413;SDS011;60995;52.154;4.498;2023-04-03T01:36:10;4.55;;;1.65;;
72413;SDS011;60995;52.154;4.498;2023-04-03T01:38:41;6.35;;;2.15;;
72413;SDS011;60995;52.154;4.498;2023-04-03T01:41:04;5.20;;;2.00;;
72413;SDS011;60995;52.154;4.498;2023-04-03T01:43:34;7.03;;;2.28;;
72413;SDS011;60995;52.154;4.498;2023-04-03T01:46:06;5.15;;;1.85;;
72413;SDS011;60995;52.154;4.498;2023-04-03T01:48:23;3.35;;;1.50;;
72413;SDS011;60995;52.154;4.498;2023-04-03T01:50:42;6.50;;;2.15;;
72413;SDS011;60995;52.154;4.498;2023-04-03T01:53:01;7.28;;;1.85;;
72413;SDS011;60995;52.154;4.498;2023-04-03T01:55:21;5.55;;;2.17;;
72413;SDS011;60995;52.154;4.498;2023-04-03T01:57:44;6.07;;;1.87;;
72413;SDS011;60995;52.154;4.498;2023-04-03T02:00:00;8.02;;;2.08;;
72413;SDS011;60995;52.154;4.498;2023-04-03T02:02:30;6.82;;;2.10;;
72413;SDS011;60995;52.154;4.498;2023-04-03T02:04:46;7.15;;;2.00;;
72413;SDS011;60995;52.154;4.498;2023-04-03T02:07:10;7.22;;;2.13;;
72413;SDS011;60995;52.154;4.498;2023-04-03T02:09:27;6.78;;;2.13;;
72413;SDS011;60995;52.154;4.498;2023-04-03T02:11:51;6.25;;;2.13;;
72413;SDS011;60995;52.154;4.498;2023-04-03T02:14:17;7.55;;;1.75;;
72413;SDS011;60995;52.154;4.498;2023-04-03T02:16:37;4.45;;;1.77;;
72413;SDS011;60995;52.154;4.498;2023-04-03T02:18:56;6.80;;;2.20;;
72413;SDS011;60995;52.154;4.498;2023-04-03T02:21:24;4.35;;;1.60;;
72413;SDS011;60995;52.154;4.498;2023-04-03T02:23:43;5.88;;;2.05;;
72413;SDS011;60995;52.154;4.498;2023-04-03T02:26:06;5.93;;;2.38;;
72413;SDS011;60995;52.154;4.498;2023-04-03T02:28:48;6.97;;;2.17;;
72413;SDS011;60995;52.154;4.498;2023-04-03T02:31:14;3.67;;;1.83;;
72413;SDS011;60995;52.154;4.498;2023-04-03T02:33:31;6.25;;;1.88;;
72413;SDS011;60995;52.154;4.498;2023-04-03T02:35:52;6.60;;;1.98;;
72413;SDS011;60995;52.154;4.498;2023-04-03T02:38:13;7.55;;;2.20;;
72413;SDS011;60995;52.154;4.498;2023-04-03T02:40:32;6.90;;;2.20;;
72413;SDS011;60995;52.154;4.498;2023-04-03T02:42:54;8.45;;;2.38;;
72413;SDS011;60995;52.154;4.498;2023-04-03T02:45:16;6.40;;;2.63;;
72413;SDS011;60995;52.154;4.498;2023-04-03T02:47:38;6.20;;;2.15;;
72413;SDS011;60995;52.154;4.498;2023-04-03T02:50:12;7.32;;;1.80;;
72413;SDS011;60995;52.154;4.498;2023-04-03T02:52:34;5.20;;;2.20;;
72413;SDS011;60995;52.154;4.498;2023-04-03T02:54:58;5.97;;;2.20;;
72413;SDS011;60995;52.154;4.498;2023-04-03T02:57:18;8.60;;;2.38;;
72413;SDS011;60995;52.154;4.498;2023-04-03T02:59:37;5.70;;;2.15;;
72413;SDS011;60995;52.154;4.498;2023-04-03T03:02:06;7.40;;;2.22;;
72413;SDS011;60995;52.154;4.498;2023-04-03T03:04:26;5.25;;;2.58;;
72413;SDS011;60995;52.154;4.498;2023-04-03T03:06:46;7.35;;;2.42;;
72413;SDS011;60995;52.154;4.498;2023-04-03T03:09:02;12.13;;;2.35;;
72413;SDS011;60995;52.154;4.498;2023-04-03T03:11:22;6.75;;;2.47;;
72413;SDS011;60995;52.154;4.498;2023-04-03T03:13:51;6.55;;;2.22;;
72413;SDS011;60995;52.154;4.498;2023-04-03T03:16:12;6.50;;;2.22;;
72413;SDS011;60995;52.154;4.498;2023-04-03T03:18:31;7.03;;;2.60;;
72413;SDS011;60995;52.154;4.498;2023-04-03T03:20:54;6.93;;;2.30;;
72413;SDS011;60995;52.154;4.498;2023-04-03T03:23:16;7.67;;;2.50;;
72413;SDS011;60995;52.154;4.498;2023-04-03T03:25:43;5.82;;;2.17;;
72413;SDS011;60995;52.154;4.498;2023-04-03T03:28:02;6.13;;;2.40;;
72413;SDS011;60995;52.154;4.498;2023-04-03T03:40:58;6.75;;;2.38;;
72413;SDS011;60995;52.154;4.498;2023-04-03T03:43:15;8.65;;;2.42;;
72413;SDS011;60995;52.154;4.498;2023-04-03T03:45:32;7.45;;;2.30;;
72413;SDS011;60995;52.154;4.498;2023-04-03T03:47:49;9.52;;;2.50;;
72413;SDS011;60995;52.154;4.498;2023-04-03T03:50:07;6.70;;;2.83;;
72413;SDS011;60995;52.154;4.498;2023-04-03T03:52:42;9.73;;;2.60;;
72413;SDS011;60995;52.154;4.498;2023-04-03T03:55:19;9.25;;;2.50;;
72413;SDS011;60995;52.154;4.498;2023-04-03T03:57:56;7.60;;;2.60;;
72413;SDS011;60995;52.154;4.498;2023-04-03T04:00:44;5.55;;;2.15;;
72413;SDS011;60995;52.154;4.498;2023-04-03T04:03:15;6.40;;;2.38;;
72413;SDS011;60995;52.154;4.498;2023-04-03T04:05:53;7.10;;;2.40;;
72413;SDS011;60995;52.154;4.498;2023-04-03T04:08:30;7.90;;;2.83;;
72413;SDS011;60995;52.154;4.498;2023-04-03T04:11:05;5.82;;;2.53;;
72413;SDS011;60995;52.154;4.498;2023-04-03T04:13:33;10.32;;;2.70;;
72413;SDS011;60995;52.154;4.498;2023-04-03T04:15:51;10.00;;;2.78;;
72413;SDS011;60995;52.154;4.498;2023-04-03T04:18:11;8.45;;;2.30;;
72413;SDS011;60995;52.154;4.498;2023-04-03T04:20:43;9.65;;;2.45;;
72413;SDS011;60995;52.154;4.498;2023-04-03T04:23:16;11.90;;;2.97;;
72413;SDS011;60995;52.154;4.498;2023-04-03T04:25:46;7.25;;;2.83;;
72413;SDS011;60995;52.154;4.498;2023-04-03T04:28:08;8.15;;;2.70;;
72413;SDS011;60995;52.154;4.498;2023-04-03T04:30:30;9.35;;;2.55;;
72413;SDS011;60995;52.154;4.498;2023-04-03T04:32:51;8.30;;;2.80;;
72413;SDS011;60995;52.154;4.498;2023-04-03T04:35:22;10.37;;;2.80;;
72413;SDS011;60995;52.154;4.498;2023-04-03T04:37:48;6.78;;;2.75;;
72413;SDS011;60995;52.154;4.498;2023-04-03T04:40:10;7.88;;;2.80;;
72413;SDS011;60995;52.154;4.498;2023-04-03T04:42:27;11.13;;;2.92;;
72413;SDS011;60995;52.154;4.498;2023-04-03T04:44:49;8.18;;;2.90;;
72413;SDS011;60995;52.154;4.498;2023-04-03T04:47:11;9.20;;;2.97;;
72413;SDS011;60995;52.154;4.498;2023-04-03T04:49:50;11.50;;;3.08;;
72413;SDS011;60995;52.154;4.498;2023-04-03T04:52:12;7.57;;;2.47;;
72413;SDS011;60995;52.154;4.498;2023-04-03T04:54:36;8.90;;;3.13;;
72413;SDS011;60995;52.154;4.498;2023-04-03T04:57:14;9.52;;;3.30;;
72413;SDS011;60995;52.154;4.498;2023-04-03T05:02:36;9.23;;;3.00;;
72413;SDS011;60995;52.154;4.498;2023-04-03T05:05:32;8.68;;;2.95;;
72413;SDS011;60995;52.154;4.498;2023-04-03T05:08:06;9.00;;;2.70;;
72413;SDS011;60995;52.154;4.498;2023-04-03T05:10:34;8.52;;;2.75;;
72413;SDS011;60995;52.154;4.498;2023-04-03T05:13:05;8.82;;;3.10;;
72413;SDS011;60995;52.154;4.498;2023-04-03T05:18:15;11.02;;;2.92;;
72413;SDS011;60995;52.154;4.498;2023-04-03T05:23:53;6.97;;;3.13;;
72413;SDS011;60995;52.154;4.498;2023-04-03T05:32:19;10.27;;;3.28;;
72413;SDS011;60995;52.154;4.498;2023-04-03T05:34:45;14.77;;;3.88;;
72413;SDS011;60995;52.154;4.498;2023-04-03T05:37:16;11.95;;;3.47;;
72413;SDS011;60995;52.154;4.498;2023-04-03T05:39:44;11.35;;;3.47;;
72413;SDS011;60995;52.154;4.498;2023-04-03T05:42:13;8.90;;;3.10;;
72413;SDS011;60995;52.154;4.498;2023-04-03T05:44:40;12.45;;;3.75;;
72413;SDS011;60995;52.154;4.498;2023-04-03T05:47:06;11.75;;;3.90;;
72413;SDS011;60995;52.154;4.498;2023-04-03T05:49:35;9.38;;;2.90;;
72413;SDS011;60995;52.154;4.498;2023-04-03T05:52:26;9.38;;;3.15;;
72413;SDS011;60995;52.154;4.498;2023-04-03T05:55:20;11.95;;;2.95;;
72413;SDS011;60995;52.154;4.498;2023-04-03T05:57:49;9.07;;;2.88;;
72413;SDS011;60995;52.154;4.498;2023-04-03T06:00:16;14.00;;;2.97;;
72413;SDS011;60995;52.154;4.498;2023-04-03T06:02:40;8.23;;;2.97;;
72413;SDS011;60995;52.154;4.498;2023-04-03T06:05:10;7.70;;;3.00;;
72413;SDS011;60995;52.154;4.498;2023-04-03T06:07:57;11.82;;;3.10;;
72413;SDS011;60995;52.154;4.498;2023-04-03T06:10:17;9.32;;;2.83;;
72413;SDS011;60995;52.154;4.498;2023-04-03T06:12:33;10.82;;;3.25;;
72413;SDS011;60995;52.154;4.498;2023-04-03T06:14:53;11.15;;;3.00;;
72413;SDS011;60995;52.154;4.498;2023-04-03T06:17:09;13.10;;;3.35;;
72413;SDS011;60995;52.154;4.498;2023-04-03T06:19:28;8.73;;;2.85;;
72413;SDS011;60995;52.154;4.498;2023-04-03T06:21:57;15.13;;;3.00;;
72413;SDS011;60995;52.154;4.498;2023-04-03T06:24:28;8.27;;;3.00;;
72413;SDS011;60995;52.154;4.498;2023-04-03T06:26:49;9.23;;;2.75;;
72413;SDS011;60995;52.154;4.498;2023-04-03T06:29:07;9.82;;;2.50;;
72413;SDS011;60995;52.154;4.498;2023-04-03T06:31:26;7.88;;;2.45;;
72413;SDS011;60995;52.154;4.498;2023-04-03T06:34:05;7.43;;;2.40;;
72413;SDS011;60995;52.154;4.498;2023-04-03T06:36:27;8.35;;;2.60;;
72413;SDS011;60995;52.154;4.498;2023-04-03T06:38:43;8.07;;;2.63;;
72413;SDS011;60995;52.154;4.498;2023-04-03T06:41:02;11.02;;;2.50;;
72413;SDS011;60995;52.154;4.498;2023-04-03T06:43:24;4.35;;;1.92;;
72413;SDS011;60995;52.154;4.498;2023-04-03T06:45:43;9.63;;;2.40;;
72413;SDS011;60995;52.154;4.498;2023-04-03T06:48:02;12.10;;;2.45;;
72413;SDS011;60995;52.154;4.498;2023-04-03T06:50:29;7.53;;;2.30;;
72413;SDS011;60995;52.154;4.498;2023-04-03T06:52:53;10.40;;;2.63;;
72413;SDS011;60995;52.154;4.498;2023-04-03T06:55:15;7.72;;;2.35;;
72413;SDS011;60995;52.154;4.498;2023-04-03T06:57:37;8.85;;;2.30;;
72413;SDS011;60995;52.154;4.498;2023-04-03T07:00:19;7.88;;;2.65;;
72413;SDS011;60995;52.154;4.498;2023-04-03T07:02:39;8.45;;;2.55;;
72413;SDS011;60995;52.154;4.498;2023-04-03T07:04:59;6.57;;;2.80;;
72413;SDS011;60995;52.154;4.498;2023-04-03T07:07:18;8.10;;;2.55;;
72413;SDS011;60995;52.154;4.498;2023-04-03T07:09:40;6.57;;;2.63;;
72413;SDS011;60995;52.154;4.498;2023-04-03T07:12:11;9.48;;;2.53;;
72413;SDS011;60995;52.154;4.498;2023-04-03T07:14:32;11.85;;;2.60;;
72413;SDS011;60995;52.154;4.498;2023-04-03T07:16:58;8.02;;;2.50;;
72413;SDS011;60995;52.154;4.498;2023-04-03T07:19:15;12.55;;;2.70;;
72413;SDS011;60995;52.154;4.498;2023-04-03T07:21:32;6.55;;;2.25;;
72413;SDS011;60995;52.154;4.498;2023-04-03T07:23:48;6.13;;;2.13;;
72413;SDS011;60995;52.154;4.498;2023-04-03T07:26:05;8.60;;;2.78;;
72413;SDS011;60995;52.154;4.498;2023-04-03T07:28:22;7.20;;;2.28;;
72413;SDS011;60995;52.154;4.498;2023-04-03T07:30:43;10.95;;;2.40;;
72413;SDS011;60995;52.154;4.498;2023-04-03T07:33:02;7.90;;;2.40;;
72413;SDS011;60995;52.154;4.498;2023-04-03T07:35:18;6.07;;;2.30;;
72413;SDS011;60995;52.154;4.498;2023-04-03T07:37:34;8.55;;;2.65;;
72413;SDS011;60995;52.154;4.498;2023-04-03T07:39:51;7.72;;;2.10;;
72413;SDS011;60995;52.154;4.498;2023-04-03T07:42:07;8.40;;;2.42;;
72413;SDS011;60995;52.154;4.498;2023-04-03T07:44:24;9.80;;;2.38;;
72413;SDS011;60995;52.154;4.498;2023-04-03T07:46:41;8.75;;;2.20;;
72413;SDS011;60995;52.154;4.498;2023-04-03T07:48:58;8.18;;;2.00;;
72413;SDS011;60995;52.154;4.498;2023-04-03T07:51:14;6.55;;;1.98;;
72413;SDS011;60995;52.154;4.498;2023-04-03T07:53:32;5.13;;;1.35;;
72413;SDS011;60995;52.154;4.498;2023-04-03T07:55:49;8.25;;;2.20;;
72413;SDS011;60995;52.154;4.498;2023-04-03T07:58:07;7.50;;;2.22;;
72413;SDS011;60995;52.154;4.498;2023-04-03T08:00:23;7.72;;;2.20;;
72413;SDS011;60995;52.154;4.498;2023-04-03T08:02:40;10.77;;;2.53;;
72413;SDS011;60995;52.154;4.498;2023-04-03T08:04:56;9.30;;;2.60;;
72413;SDS011;60995;52.154;4.498;2023-04-03T08:07:13;7.60;;;2.13;;
72413;SDS011;60995;52.154;4.498;2023-04-03T08:09:30;8.25;;;2.00;;
72413;SDS011;60995;52.154;4.498;2023-04-03T08:11:47;7.32;;;2.28;;
72413;SDS011;60995;52.154;4.498;2023-04-03T08:14:03;6.80;;;1.70;;
72413;SDS011;60995;52.154;4.498;2023-04-03T08:16:20;6.25;;;2.08;;
72413;SDS011;60995;52.154;4.498;2023-04-03T08:18:41;8.85;;;2.38;;
72413;SDS011;60995;52.154;4.498;2023-04-03T08:20:57;8.10;;;2.60;;
72413;SDS011;60995;52.154;4.498;2023-04-03T08:23:14;8.00;;;2.03;;
72413;SDS011;60995;52.154;4.498;2023-04-03T08:25:31;13.02;;;2.92;;
72413;SDS011;60995;52.154;4.498;2023-04-03T08:27:47;10.00;;;2.70;;
72413;SDS011;60995;52.154;4.498;2023-04-03T08:30:04;6.57;;;2.35;;
72413;SDS011;60995;52.154;4.498;2023-04-03T08:32:22;8.90;;;2.45;;
72413;SDS011;60995;52.154;4.498;2023-04-03T08:34:39;6.63;;;2.00;;
72413;SDS011;60995;52.154;4.498;2023-04-03T08:36:56;7.40;;;2.08;;
72413;SDS011;60995;52.154;4.498;2023-04-03T08:39:12;5.70;;;1.90;;
72413;SDS011;60995;52.154;4.498;2023-04-03T08:41:31;7.70;;;2.13;;
72413;SDS011;60995;52.154;4.498;2023-04-03T08:43:56;8.50;;;2.30;;
72413;SDS011;60995;52.154;4.498;2023-04-03T08:46:35;7.40;;;2.10;;
72413;SDS011;60995;52.154;4.498;2023-04-03T08:51:56;7.15;;;2.03;;
72413;SDS011;60995;52.154;4.498;2023-04-03T08:54:33;7.35;;;1.95;;
72413;SDS011;60995;52.154;4.498;2023-04-03T08:56:57;5.75;;;1.83;;
72413;SDS011;60995;52.154;4.498;2023-04-03T08:59:24;5.80;;;1.77;;
72413;SDS011;60995;52.154;4.498;2023-04-03T09:01:46;7.35;;;2.10;;
72413;SDS011;60995;52.154;4.498;2023-04-03T09:04:08;4.65;;;1.90;;
72413;SDS011;60995;52.154;4.498;2023-04-03T09:06:32;5.18;;;1.63;;
72413;SDS011;60995;52.154;4.498;2023-04-03T09:11:50;6.07;;;1.70;;
72413;SDS011;60995;52.154;4.498;2023-04-03T09:14:24;8.00;;;1.80;;
72413;SDS011;60995;52.154;4.498;2023-04-03T09:22:20;6.80;;;1.70;;
72413;SDS011;60995;52.154;4.498;2023-04-03T09:24:41;6.40;;;1.90;;
72413;SDS011;60995;52.154;4.498;2023-04-03T09:27:04;5.53;;;1.77;;
72413;SDS011;60995;52.154;4.498;2023-04-03T09:29:23;7.07;;;1.67;;
72413;SDS011;60995;52.154;4.498;2023-04-03T09:31:42;5.40;;;1.33;;
72413;SDS011;60995;52.154;4.498;2023-04-03T09:36:38;5.88;;;1.55;;
72413;SDS011;60995;52.154;4.498;2023-04-03T09:41:58;4.25;;;1.50;;
72413;SDS011;60995;52.154;4.498;2023-04-03T09:44:25;6.22;;;2.05;;
72413;SDS011;60995;52.154;4.498;2023-04-03T09:46:44;9.35;;;1.73;;
72413;SDS011;60995;52.154;4.498;2023-04-03T09:49:02;4.35;;;1.40;;
72413;SDS011;60995;52.154;4.498;2023-04-03T09:51:24;5.20;;;1.42;;
72413;SDS011;60995;52.154;4.498;2023-04-03T09:53:43;3.72;;;1.42;;
72413;SDS011;60995;52.154;4.498;2023-04-03T09:56:02;4.13;;;1.40;;
72413;SDS011;60995;52.154;4.498;2023-04-03T09:58:37;2.65;;;1.05;;
72413;SDS011;60995;52.154;4.498;2023-04-03T10:01:02;3.58;;;0.95;;
72413;SDS011;60995;52.154;4.498;2023-04-03T10:03:30;3.80;;;1.00;;
72413;SDS011;60995;52.154;4.498;2023-04-03T10:05:52;8.15;;;1.35;;
72413;SDS011;60995;52.154;4.498;2023-04-03T10:10:29;3.90;;;1.27;;
72413;SDS011;60995;52.154;4.498;2023-04-03T10:12:45;2.83;;;1.23;;
72413;SDS011;60995;52.154;4.498;2023-04-03T10:15:02;5.20;;;1.30;;
72413;SDS011;60995;52.154;4.498;2023-04-03T10:17:34;2.38;;;1.15;;
72413;SDS011;60995;52.154;4.498;2023-04-03T10:25:55;4.88;;;1.38;;
72413;SDS011;60995;52.154;4.498;2023-04-03T10:34:18;5.55;;;1.40;;
72413;SDS011;60995;52.154;4.498;2023-04-03T10:39:53;2.83;;;1.02;;
72413;SDS011;60995;52.154;4.498;2023-04-03T10:45:19;5.85;;;1.35;;
72413;SDS011;60995;52.154;4.498;2023-04-03T10:48:04;3.25;;;1.10;;
72413;SDS011;60995;52.154;4.498;2023-04-03T10:50:39;2.35;;;1.02;;
72413;SDS011;60995;52.154;4.498;2023-04-03T10:56:04;3.00;;;1.08;;
72413;SDS011;60995;52.154;4.498;2023-04-03T10:58:38;4.82;;;1.15;;
72413;SDS011;60995;52.154;4.498;2023-04-03T11:01:12;3.47;;;1.10;;
72413;SDS011;60995;52.154;4.498;2023-04-03T11:03:50;3.17;;;1.00;;
72413;SDS011;60995;52.154;4.498;2023-04-03T11:06:13;3.22;;;1.30;;
72413;SDS011;60995;52.154;4.498;2023-04-03T11:08:48;4.82;;;1.42;;
72413;SDS011;60995;52.154;4.498;2023-04-03T11:11:15;3.35;;;1.05;;
72413;SDS011;60995;52.154;4.498;2023-04-03T11:13:43;2.58;;;0.98;;
72413;SDS011;60995;52.154;4.498;2023-04-03T11:16:15;4.50;;;0.90;;
72413;SDS011;60995;52.154;4.498;2023-04-03T11:18:48;2.75;;;1.02;;
72413;SDS011;60995;52.154;4.498;2023-04-03T11:21:31;2.92;;;1.10;;
72413;SDS011;60995;52.154;4.498;2023-04-03T11:24:03;4.00;;;1.00;;
72413;SDS011;60995;52.154;4.498;2023-04-03T11:26:40;4.00;;;1.10;;
72413;SDS011;60995;52.154;4.498;2023-04-03T11:29:03;2.72;;;0.90;;
72413;SDS011;60995;52.154;4.498;2023-04-03T11:31:32;2.50;;;1.00;;
72413;SDS011;60995;52.154;4.498;2023-04-03T11:34:24;4.47;;;0.80;;
72413;SDS011;60995;52.154;4.498;2023-04-03T11:37:00;2.15;;;0.90;;
72413;SDS011;60995;52.154;4.498;2023-04-03T11:39:34;2.13;;;0.80;;
72413;SDS011;60995;52.154;4.498;2023-04-03T11:41:54;3.63;;;0.85;;
72413;SDS011;60995;52.154;4.498;2023-04-03T11:44:30;1.80;;;1.10;;
72413;SDS011;60995;52.154;4.498;2023-04-03T11:46:56;2.40;;;0.90;;
72413;SDS011;60995;52.154;4.498;2023-04-03T11:52:14;3.08;;;1.00;;
72413;SDS011;60995;52.154;4.498;2023-04-03T11:54:58;5.15;;;1.88;;
72413;SDS011;60995;52.154;4.498;2023-04-03T11:58:01;3.15;;;1.38;;
72413;SDS011;60995;52.154;4.498;2023-04-03T12:05:45;3.25;;;0.90;;
72413;SDS011;60995;52.154;4.498;2023-04-03T12:13:24;2.28;;;0.98;;
72413;SDS011;60995;52.154;4.498;2023-04-03T12:15:49;6.22;;;1.08;;
72413;SDS011;60995;52.154;4.498;2023-04-03T12:21:12;2.72;;;0.90;;
72413;SDS011;60995;52.154;4.498;2023-04-03T12:23:56;4.13;;;1.00;;
72413;SDS011;60995;52.154;4.498;2023-04-03T12:29:32;2.88;;;0.80;;
72413;SDS011;60995;52.154;4.498;2023-04-03T12:31:55;3.53;;;0.90;;
72413;SDS011;60995;52.154;4.498;2023-04-03T12:34:38;1.92;;;0.70;;
72413;SDS011;60995;52.154;4.498;2023-04-03T12:40:21;1.90;;;0.88;;
72413;SDS011;60995;52.154;4.498;2023-04-03T12:45:52;2.22;;;0.70;;
72413;SDS011;60995;52.154;4.498;2023-04-03T12:48:24;2.78;;;1.10;;
72413;SDS011;60995;52.154;4.498;2023-04-03T12:50:45;3.50;;;1.30;;
72413;SDS011;60995;52.154;4.498;2023-04-03T12:53:06;2.42;;;0.93;;
72413;SDS011;60995;52.154;4.498;2023-04-03T12:55:57;1.83;;;0.85;;
72413;SDS011;60995;52.154;4.498;2023-04-03T12:58:45;4.72;;;1.00;;
72413;SDS011;60995;52.154;4.498;2023-04-03T13:01:13;2.10;;;0.95;;
72413;SDS011;60995;52.154;4.498;2023-04-03T13:03:43;4.57;;;1.00;;
72413;SDS011;60995;52.154;4.498;2023-04-03T13:06:03;6.10;;;1.27;;
72413;SDS011;60995;52.154;4.498;2023-04-03T13:08:20;10.25;;;4.55;;
72413;SDS011;60995;52.154;4.498;2023-04-03T13:13:27;3.22;;;1.10;;
72413;SDS011;60995;52.154;4.498;2023-04-03T13:15:45;2.58;;;0.90;;
72413;SDS011;60995;52.154;4.498;2023-04-03T13:20:49;2.83;;;1.20;;
72413;SDS011;60995;52.154;4.498;2023-04-03T13:23:07;2.30;;;0.90;;
72413;SDS011;60995;52.154;4.498;2023-04-03T13:25:34;1.60;;;0.90;;
72413;SDS011;60995;52.154;4.498;2023-04-03T13:27:57;1.95;;;1.00;;
72413;SDS011;60995;52.154;4.498;2023-04-03T13:30:20;4.57;;;1.38;;
72413;SDS011;60995;52.154;4.498;2023-04-03T13:32:52;4.03;;;1.10;;
72413;SDS011;60995;52.154;4.498;2023-04-03T13:38:02;5.25;;;1.90;;
72413;SDS011;60995;52.154;4.498;2023-04-03T13:40:56;3.58;;;1.20;;
72413;SDS011;60995;52.154;4.498;2023-04-03T13:43:18;2.42;;;1.20;;
72413;SDS011;60995;52.154;4.498;2023-04-03T13:48:22;2.85;;;1.00;;
72413;SDS011;60995;52.154;4.498;2023-04-03T13:50:53;5.00;;;1.10;;
72413;SDS011;60995;52.154;4.498;2023-04-03T13:53:15;3.08;;;1.05;;
72413;SDS011;60995;52.154;4.498;2023-04-03T13:55:33;3.53;;;1.02;;
72413;SDS011;60995;52.154;4.498;2023-04-03T13:58:00;5.15;;;1.10;;
72413;SDS011;60995;52.154;4.498;2023-04-03T14:00:28;4.30;;;0.95;;
72413;SDS011;60995;52.154;4.498;2023-04-03T14:02:47;3.17;;;1.10;;
72413;SDS011;60995;52.154;4.498;2023-04-03T14:05:04;3.75;;;1.00;;
72413;SDS011;60995;52.154;4.498;2023-04-03T14:07:24;6.93;;;1.27;;
72413;SDS011;60995;52.154;4.498;2023-04-03T14:09:41;2.67;;;1.00;;
72413;SDS011;60995;52.154;4.498;2023-04-03T14:12:05;4.03;;;1.20;;
72413;SDS011;60995;52.154;4.498;2023-04-03T14:14:41;3.30;;;1.20;;
72413;SDS011;60995;52.154;4.498;2023-04-03T14:17:01;4.45;;;1.15;;
72413;SDS011;60995;52.154;4.498;2023-04-03T14:19:27;4.10;;;1.20;;
72413;SDS011;60995;52.154;4.498;2023-04-03T14:21:54;5.05;;;1.50;;
72413;SDS011;60995;52.154;4.498;2023-04-03T14:24:13;4.65;;;1.20;;
72413;SDS011;60995;52.154;4.498;2023-04-03T14:26:30;3.65;;;1.30;;
72413;SDS011;60995;52.154;4.498;2023-04-03T14:28:47;5.47;;;1.20;;
72413;SDS011;60995;52.154;4.498;2023-04-03T14:31:09;6.65;;;1.40;;
72413;SDS011;60995;52.154;4.498;2023-04-03T14:33:30;3.33;;;1.10;;
72413;SDS011;60995;52.154;4.498;2023-04-03T14:35:50;3.60;;;1.25;;
72413;SDS011;60995;52.154;4.498;2023-04-03T14:38:41;3.08;;;1.15;;
72413;SDS011;60995;52.154;4.498;2023-04-03T14:40:51;8.07;;;1.83;;
72413;SDS011;60995;52.154;4.498;2023-04-03T14:43:09;8.23;;;2.42;;
72413;SDS011;60995;52.154;4.498;2023-04-03T14:45:28;2.58;;;1.23;;
72413;SDS011;60995;52.154;4.498;2023-04-03T14:50:06;2.75;;;1.00;;
72413;SDS011;60995;52.154;4.498;2023-04-03T14:52:25;2.35;;;0.90;;
72413;SDS011;60995;52.154;4.498;2023-04-03T14:54:51;4.35;;;1.38;;
72413;SDS011;60995;52.154;4.498;2023-04-03T14:57:09;3.80;;;1.30;;
72413;SDS011;60995;52.154;4.498;2023-04-03T14:59:30;4.38;;;1.27;;
72413;SDS011;60995;52.154;4.498;2023-04-03T15:01:50;3.88;;;1.15;;
72413;SDS011;60995;52.154;4.498;2023-04-03T15:04:12;3.80;;;1.20;;
72413;SDS011;60995;52.154;4.498;2023-04-03T15:06:33;3.72;;;1.35;;
72413;SDS011;60995;52.154;4.498;2023-04-03T15:08:50;2.33;;;1.00;;
72413;SDS011;60995;52.154;4.498;2023-04-03T15:11:07;6.93;;;1.55;;
72413;SDS011;60995;52.154;4.498;2023-04-03T15:13:27;3.55;;;1.30;;
72413;SDS011;60995;52.154;4.498;2023-04-03T15:15:43;4.35;;;1.30;;
72413;SDS011;60995;52.154;4.498;2023-04-03T15:18:00;4.47;;;1.40;;
72413;SDS011;60995;52.154;4.498;2023-04-03T15:20:21;3.42;;;1.13;;
72413;SDS011;60995;52.154;4.498;2023-04-03T15:22:43;4.70;;;1.30;;
72413;SDS011;60995;52.154;4.498;2023-04-03T15:25:00;4.32;;;1.40;;
72413;SDS011;60995;52.154;4.498;2023-04-03T15:27:19;5.20;;;1.20;;
72413;SDS011;60995;52.154;4.498;2023-04-03T15:29:39;5.07;;;1.40;;
72413;SDS011;60995;52.154;4.498;2023-04-03T15:31:57;4.85;;;1.38;;
72413;SDS011;60995;52.154;4.498;2023-04-03T15:34:17;3.88;;;1.33;;
72413;SDS011;60995;52.154;4.498;2023-04-03T15:36:34;3.42;;;1.27;;
72413;SDS011;60995;52.154;4.498;2023-04-03T15:38:50;3.50;;;1.30;;
72413;SDS011;60995;52.154;4.498;2023-04-03T15:41:06;4.75;;;1.45;;
72413;SDS011;60995;52.154;4.498;2023-04-03T15:43:23;7.28;;;1.38;;
72413;SDS011;60995;52.154;4.498;2023-04-03T15:45:39;3.45;;;1.20;;
72413;SDS011;60995;52.154;4.498;2023-04-03T15:47:57;3.55;;;1.48;;
72413;SDS011;60995;52.154;4.498;2023-04-03T15:50:13;5.75;;;1.48;;
72413;SDS011;60995;52.154;4.498;2023-04-03T15:52:30;4.93;;;1.40;;
72413;SDS011;60995;52.154;4.498;2023-04-03T15:54:46;5.93;;;1.60;;
72413;SDS011;60995;52.154;4.498;2023-04-03T15:57:03;3.55;;;1.27;;
72413;SDS011;60995;52.154;4.498;2023-04-03T15:59:19;4.25;;;1.30;;
72413;SDS011;60995;52.154;4.498;2023-04-03T16:01:38;4.80;;;1.30;;
72413;SDS011;60995;52.154;4.498;2023-04-03T16:03:56;3.13;;;1.27;;
72413;SDS011;60995;52.154;4.498;2023-04-03T16:06:15;4.80;;;1.58;;
72413;SDS011;60995;52.154;4.498;2023-04-03T16:08:34;3.78;;;1.33;;
72413;SDS011;60995;52.154;4.498;2023-04-03T16:10:52;8.07;;;1.70;;
72413;SDS011;60995;52.154;4.498;2023-04-03T16:13:08;4.90;;;1.63;;
72413;SDS011;60995;52.154;4.498;2023-04-03T16:15:25;3.42;;;1.45;;
72413;SDS011;60995;52.154;4.498;2023-04-03T16:17:43;5.40;;;1.63;;
72413;SDS011;60995;52.154;4.498;2023-04-03T16:20:01;4.50;;;1.42;;
72413;SDS011;60995;52.154;4.498;2023-04-03T16:22:20;4.28;;;1.40;;
72413;SDS011;60995;52.154;4.498;2023-04-03T16:24:37;8.93;;;1.80;;
72413;SDS011;60995;52.154;4.498;2023-04-03T16:26:53;7.10;;;1.52;;
72413;SDS011;60995;52.154;4.498;2023-04-03T16:29:10;4.93;;;1.30;;